Time;durP1;ratioP1;P1;durP2;ratioP2;P2;SDS_P1;SDS_P2;PMS_P1;PMS_P2;Temp;Humidity;BMP_temperature;BMP_pressure;BME280_temperature;BME280_humidity;BME280_pressure;Samples;Min_cycle;Max_cycle;Signal;HPM_P1;HPM_P2
2022/08/14 00:01:34;;;;;;;0.70;0.70;;;25.30;51.40;;;;;;10825633;32;20024;-71
2022/08/14 00:07:37;;;;;;;1.02;0.93;;;25.30;51.60;;;;;;10825526;33;20011;-71
2022/08/14 00:13:40;;;;;;;1.55;0.88;;;25.20;51.70;;;;;;10825185;32;20066;-71
2022/08/14 00:19:42;;;;;;;2.67;1.10;;;25.20;51.90;;;;;;10825213;33;20016;-71
2022/08/14 00:25:48;;;;;;;0.80;0.73;;;25.20;51.90;;;;;;10824919;33;20059;-71
2022/08/14 00:31:50;;;;;;;1.30;1.10;;;25.10;52.00;;;;;;10821669;33;20027;-71
2022/08/14 00:37:52;;;;;;;0.60;0.55;;;25.10;52.00;;;;;;10823970;33;20046;-71
2022/08/14 00:43:54;;;;;;;1.85;0.82;;;25.00;52.10;;;;;;10824485;33;20021;-71
2022/08/14 00:49:56;;;;;;;2.65;1.10;;;24.90;52.20;;;;;;10820256;32;20028;-71
2022/08/14 00:55:59;;;;;;;1.55;1.08;;;24.80;52.30;;;;;;10824370;33;20016;-71
2022/08/14 01:02:02;;;;;;;1.02;0.70;;;24.80;52.30;;;;;;10824140;33;20028;-71
2022/08/14 01:08:04;;;;;;;2.45;1.00;;;24.80;52.40;;;;;;10828575;32;20013;-71
2022/08/14 01:14:06;;;;;;;1.20;0.82;;;24.90;52.30;;;;;;10830486;33;20050;-71
2022/08/14 01:26:30;;;;;;;1.37;0.82;;;24.80;52.50;;;;;;10831282;33;20379;-71
2022/08/14 01:32:32;;;;;;;0.80;0.80;;;24.80;52.60;;;;;;10829820;33;20050;-71
2022/08/14 01:38:35;;;;;;;1.33;0.98;;;24.80;52.70;;;;;;10829676;32;20063;-71
2022/08/14 01:44:37;;;;;;;1.33;0.98;;;24.60;52.80;;;;;;10829617;33;20371;-71
2022/08/14 01:50:40;;;;;;;1.48;1.08;;;24.40;53.10;;;;;;10829335;32;20035;-71
2022/08/14 01:56:43;;;;;;;1.27;1.02;;;24.20;53.30;;;;;;10829163;32;20020;-71
2022/08/14 02:02:45;;;;;;;2.67;1.45;;;24.20;53.40;;;;;;10828152;33;20089;-70
2022/08/14 02:08:48;;;;;;;1.75;1.17;;;24.20;53.50;;;;;;10828752;32;20050;-71
2022/08/14 02:14:50;;;;;;;1.37;0.90;;;24.20;53.30;;;;;;10828800;32;20050;-71
2022/08/14 02:20:53;;;;;;;2.92;1.50;;;24.20;53.40;;;;;;10828290;32;20058;-70
2022/08/14 02:27:20;;;;;;;1.40;1.10;;;24.10;53.60;;;;;;10824173;32;20075;-71
2022/08/14 02:33:22;;;;;;;1.52;1.12;;;24.00;53.60;;;;;;10828088;32;20055;-71
2022/08/14 02:39:41;;;;;;;2.47;1.40;;;24.10;53.70;;;;;;10828012;33;20431;-71
2022/08/14 02:45:44;;;;;;;1.17;0.90;;;24.10;53.70;;;;;;10827828;32;20320;-71
2022/08/14 02:51:47;;;;;;;2.55;1.40;;;24.00;53.80;;;;;;10827611;32;20024;-70
2022/08/14 02:58:22;;;;;;;1.42;1.12;;;24.00;53.90;;;;;;10827456;33;20023;-71
2022/08/14 03:04:29;;;;;;;1.77;1.42;;;24.00;54.10;;;;;;10823228;33;20396;-71
2022/08/14 03:10:31;;;;;;;9.80;1.33;;;23.90;54.10;;;;;;10821966;33;20028;-71
2022/08/14 03:16:35;;;;;;;3.22;1.20;;;23.90;54.40;;;;;;10826950;33;20313;-71
2022/08/14 03:22:38;;;;;;;1.25;0.77;;;23.80;54.30;;;;;;10826744;32;20028;-70
2022/08/14 03:28:42;;;;;;;1.67;1.20;;;23.70;54.60;;;;;;10825905;32;20419;-71
2022/08/14 03:34:45;;;;;;;2.72;1.42;;;23.70;54.70;;;;;;10826278;32;20059;-70
2022/08/14 03:40:49;;;;;;;3.95;1.33;;;23.60;54.70;;;;;;10828065;32;20317;-70
2022/08/14 03:46:53;;;;;;;2.58;1.20;;;23.60;54.60;;;;;;10825202;33;20016;-71
2022/08/14 03:52:55;;;;;;;1.75;1.45;;;23.50;54.80;;;;;;10825870;32;20105;-71
2022/08/14 03:59:06;;;;;;;1.87;1.23;;;23.30;55.00;;;;;;10825781;33;20047;-70
2022/08/14 04:05:09;;;;;;;7.12;1.55;;;23.40;55.10;;;;;;10825787;33;20047;-70
2022/08/14 04:11:12;;;;;;;2.97;2.03;;;23.60;55.20;;;;;;10825425;33;20015;-71
2022/08/14 04:17:14;;;;;;;3.83;2.20;;;23.50;55.10;;;;;;10825348;33;20019;-70
2022/08/14 04:23:16;;;;;;;3.28;1.87;;;23.50;55.20;;;;;;10825049;33;20363;-71
2022/08/14 04:29:18;;;;;;;1.95;1.02;;;23.50;55.20;;;;;;10867816;27;20031;-70
2022/08/14 04:35:20;;;;;;;1.70;1.20;;;23.50;55.30;;;;;;10899146;32;20494;-70
2022/08/14 04:54:04;;;;;;;2.30;1.50;;;23.40;55.70;;;;;;10898612;32;20027;-70
2022/08/14 05:00:08;;;;;;;2.42;1.70;;;23.30;55.70;;;;;;10898332;32;20085;-70
2022/08/14 05:06:11;;;;;;;3.75;1.67;;;23.20;55.90;;;;;;10894216;32;20027;-70
2022/08/14 05:12:13;;;;;;;1.87;1.20;;;23.30;55.70;;;;;;10898200;32;20054;-70
2022/08/14 05:18:18;;;;;;;2.55;1.60;;;23.40;55.50;;;;;;10884788;32;20023;-71
2022/08/14 05:24:20;;;;;;;2.60;2.00;;;23.40;55.40;;;;;;10888798;32;20035;-70
2022/08/14 05:30:23;;;;;;;2.10;1.40;;;23.50;55.30;;;;;;10860552;32;20050;-70
2022/08/14 05:36:25;;;;;;;4.40;2.40;;;23.60;55.30;;;;;;10860572;32;20446;-71
2022/08/14 05:42:27;;;;;;;3.53;2.20;;;23.60;55.10;;;;;;10860346;32;20501;-71
2022/08/14 05:48:32;;;;;;;5.35;2.70;;;23.60;55.10;;;;;;10860148;32;20015;-71
2022/08/14 05:54:34;;;;;;;3.70;2.60;;;23.60;55.00;;;;;;10859638;32;20402;-71
2022/08/14 06:00:39;;;;;;;3.30;1.90;;;23.70;54.90;;;;;;10866329;32;20367;-71
2022/08/14 06:06:41;;;;;;;3.05;1.80;;;23.80;54.70;;;;;;10866657;32;20020;-71
2022/08/14 06:12:44;;;;;;;4.10;2.55;;;23.90;54.60;;;;;;10865888;32;20058;-72
2022/08/14 06:18:47;;;;;;;4.05;2.22;;;23.90;54.60;;;;;;10865620;32;20097;-71
2022/08/14 06:24:49;;;;;;;4.28;2.42;;;24.10;54.40;;;;;;10865490;32;20207;-71
2022/08/14 06:30:53;;;;;;;2.72;1.83;;;24.30;54.20;;;;;;10865272;32;20020;-72
2022/08/14 06:36:58;;;;;;;3.20;2.03;;;24.50;54.00;;;;;;10865176;32;20027;-71
2022/08/14 06:43:09;;;;;;;2.67;1.87;;;24.60;53.80;;;;;;10865041;32;20046;-71
2022/08/14 06:49:11;;;;;;;1.77;1.33;;;24.80;53.70;;;;;;10864796;32;20046;-72
2022/08/14 06:55:16;;;;;;;3.53;1.87;;;24.80;53.60;;;;;;10864648;32;20015;-71
2022/08/14 07:07:59;;;;;;;2.75;1.60;;;25.00;53.40;;;;;;10824360;33;20065;-71
2022/08/14 07:14:03;;;;;;;2.45;1.55;;;25.10;53.20;;;;;;10811502;33;20039;-71
2022/08/14 07:20:05;;;;;;;2.42;1.58;;;25.20;53.20;;;;;;10822488;33;20021;-71
2022/08/14 07:26:08;;;;;;;3.53;1.80;;;25.30;53.10;;;;;;10821608;32;20446;-71
2022/08/14 07:32:10;;;;;;;1.33;0.80;;;25.40;52.90;;;;;;10822509;33;20069;-72
2022/08/14 07:38:19;;;;;;;4.93;1.62;;;25.60;52.60;;;;;;10822260;33;20031;-72
2022/08/14 07:44:32;;;;;;;1.80;1.05;;;25.70;52.30;;;;;;10810672;33;20055;-71
2022/08/14 07:50:34;;;;;;;2.67;1.45;;;25.70;52.30;;;;;;10821996;32;20044;-72
2022/08/14 07:56:37;;;;;;;1.20;0.75;;;25.80;52.00;;;;;;10821616;33;20407;-72
2022/08/14 08:02:42;;;;;;;2.35;1.15;;;25.90;51.90;;;;;;10844272;32;20055;-71
2022/08/14 08:08:48;;;;;;;3.55;1.30;;;25.90;51.10;;;;;;10862527;32;20017;-71
2022/08/14 08:14:51;;;;;;;0.80;0.80;;;25.90;50.90;;;;;;10860599;32;20049;-72
2022/08/14 08:20:54;;;;;;;2.62;1.73;;;26.00;50.50;;;;;;10861216;32;20418;-72
2022/08/14 08:26:56;;;;;;;2.67;1.52;;;26.20;50.20;;;;;;10861896;32;20051;-71
2022/08/14 08:33:00;;;;;;;8.48;1.52;;;26.30;49.10;;;;;;10861852;32;20032;-71
2022/08/14 08:39:02;;;;;;;2.17;1.30;;;26.40;48.90;;;;;;10861692;32;20373;-72
2022/08/14 08:45:06;;;;;;;3.00;1.75;;;26.50;48.50;;;;;;10860812;32;20045;-71
2022/08/14 08:51:22;;;;;;;2.58;1.73;;;26.60;48.00;;;;;;10860794;32;20024;-71
2022/08/14 08:57:24;;;;;;;1.77;1.20;;;26.80;47.80;;;;;;10857218;32;20023;-72
2022/08/14 09:03:28;;;;;;;2.95;1.62;;;26.80;46.80;;;;;;10861129;32;20055;-72
2022/08/14 09:09:32;;;;;;;1.30;1.20;;;27.00;46.70;;;;;;10860863;32;20023;-72
2022/08/14 09:15:35;;;;;;;1.92;1.67;;;27.10;46.30;;;;;;10859952;32;20020;-73
2022/08/14 09:21:38;;;;;;;1.98;1.08;;;27.30;46.00;;;;;;10860673;32;20032;-72
2022/08/14 09:27:41;;;;;;;2.28;1.73;;;27.50;45.90;;;;;;10861459;32;20450;-72
2022/08/14 09:34:01;;;;;;;1.15;0.88;;;27.80;45.70;;;;;;10866946;32;20058;-72
2022/08/14 09:40:25;;;;;;;3.30;2.05;;;27.90;45.10;;;;;;10864283;32;20070;-72
2022/08/14 09:46:27;;;;;;;2.15;1.35;;;28.00;44.70;;;;;;10861376;32;20059;-71
2022/08/14 09:52:29;;;;;;;1.75;0.95;;;28.20;43.80;;;;;;10862387;32;20438;-73
2022/08/14 09:58:38;;;;;;;2.47;1.37;;;28.30;43.70;;;;;;10864014;32;20418;-72
2022/08/14 10:04:43;;;;;;;2.10;1.48;;;28.50;43.10;;;;;;10861261;32;20055;-72
2022/08/14 10:10:47;;;;;;;1.37;0.98;;;28.80;42.90;;;;;;10861854;32;20344;-72
2022/08/14 10:16:53;;;;;;;1.40;0.98;;;28.90;42.30;;;;;;10864314;32;20053;-72
2022/08/14 10:22:55;;;;;;;2.50;1.40;;;29.00;41.50;;;;;;10865489;32;20379;-71
2022/08/14 10:29:06;;;;;;;2.70;1.20;;;29.20;40.70;;;;;;10862694;32;20055;-72
2022/08/14 10:35:12;;;;;;;1.75;1.05;;;29.20;40.00;;;;;;10864836;32;20031;-70
2022/08/14 10:41:16;;;;;;;1.92;1.15;;;29.40;39.40;;;;;;10861060;32;20031;-71
2022/08/14 10:47:18;;;;;;;3.28;1.50;;;29.50;38.90;;;;;;10862275;32;20035;-71
2022/08/14 10:53:28;;;;;;;3.08;1.75;;;29.60;38.00;;;;;;10860523;32;20412;-71
2022/08/14 10:59:54;;;;;;;5.05;2.10;;;29.80;37.60;;;;;;10847562;32;20206;-71
2022/08/14 11:06:00;;;;;;;1.95;1.08;;;30.10;38.00;;;;;;10849540;32;20077;-71
2022/08/14 11:12:02;;;;;;;2.65;1.48;;;30.40;37.90;;;;;;10860400;32;20351;-72
2022/08/14 11:18:28;;;;;;;3.10;0.85;;;30.70;36.60;;;;;;10846615;32;20036;-73
2022/08/14 11:24:30;;;;;;;1.37;0.88;;;30.90;36.60;;;;;;10863132;32;20054;-72
2022/08/14 11:30:37;;;;;;;1.10;0.73;;;31.10;35.80;;;;;;10855900;32;20039;-71
2022/08/14 11:36:41;;;;;;;1.50;1.30;;;31.40;35.50;;;;;;10859262;32;20046;-71
2022/08/14 11:42:47;;;;;;;3.50;1.15;;;31.50;35.10;;;;;;10849183;32;20031;-71
2022/08/14 11:49:11;;;;;;;0.83;0.70;;;31.50;33.70;;;;;;10859811;32;20050;-72
2022/08/14 11:55:14;;;;;;;2.15;1.35;;;31.70;33.90;;;;;;10858204;32;20391;-72
2022/08/14 12:01:25;;;;;;;2.72;1.08;;;31.80;33.30;;;;;;10861165;32;20050;-73
2022/08/14 12:07:58;;;;;;;2.17;0.80;;;32.10;33.00;;;;;;10859916;32;20024;-73
2022/08/14 12:14:07;;;;;;;2.87;0.70;;;32.40;32.60;;;;;;10845073;32;20058;-71
2022/08/14 12:20:10;;;;;;;1.12;0.80;;;32.30;32.10;;;;;;10849282;32;20031;-71
2022/08/14 12:26:19;;;;;;;1.37;1.08;;;32.30;32.30;;;;;;10864226;27;20050;-73
2022/08/14 12:32:21;;;;;;;1.45;1.00;;;32.40;32.30;;;;;;10857304;32;20039;-71
2022/08/14 12:38:40;;;;;;;1.45;0.90;;;32.50;32.30;;;;;;10860980;32;20054;-71
2022/08/14 12:44:42;;;;;;;0.68;0.62;;;32.30;32.40;;;;;;10848130;32;20301;-72
2022/08/14 12:50:53;;;;;;;1.83;1.08;;;32.30;32.60;;;;;;10858971;32;20046;-71
2022/08/14 12:57:07;;;;;;;1.77;0.93;;;32.30;32.20;;;;;;10847182;32;20321;-72
2022/08/14 13:03:21;;;;;;;7.12;1.33;;;32.10;32.10;;;;;;10858495;32;20050;-71
2022/08/14 13:09:27;;;;;;;2.08;1.10;;;32.00;32.00;;;;;;10826494;33;20332;-73
2022/08/14 13:15:30;;;;;;;2.50;1.13;;;31.90;32.00;;;;;;10828275;33;20031;-71
2022/08/14 13:21:32;;;;;;;5.03;1.77;;;31.90;32.00;;;;;;10828033;33;20146;-71
2022/08/14 13:27:35;;;;;;;4.07;1.40;;;32.00;31.80;;;;;;10827053;33;20485;-71
2022/08/14 13:33:38;;;;;;;2.10;1.30;;;32.00;31.80;;;;;;10825966;33;20055;-71
2022/08/14 13:39:49;;;;;;;2.42;1.23;;;31.80;31.60;;;;;;10827728;33;20024;-71
2022/08/14 13:45:54;;;;;;;1.90;0.93;;;31.80;31.30;;;;;;10827658;33;20027;-71
2022/08/14 13:51:57;;;;;;;1.92;1.10;;;31.90;31.20;;;;;;10826071;33;20050;-71
2022/08/14 13:58:01;;;;;;;1.33;0.85;;;31.90;31.40;;;;;;10825395;33;20055;-71
2022/08/14 14:04:05;;;;;;;2.60;1.25;;;31.90;31.00;;;;;;10827592;33;20336;-72
2022/08/14 14:10:08;;;;;;;2.00;1.20;;;31.90;31.30;;;;;;10815744;33;20015;-70
2022/08/14 14:16:11;;;;;;;1.15;0.60;;;32.10;31.60;;;;;;10826627;32;20028;-72
2022/08/14 14:22:17;;;;;;;1.67;1.15;;;32.20;31.70;;;;;;10828612;33;20024;-72
2022/08/14 14:28:20;;;;;;;1.98;1.02;;;32.30;31.50;;;;;;10827942;33;20050;-73
2022/08/14 14:34:24;;;;;;;1.17;0.60;;;32.40;31.60;;;;;;10823988;33;20391;-72
2022/08/14 14:40:28;;;;;;;1.33;1.05;;;32.40;31.30;;;;;;10827962;33;20047;-72
2022/08/14 14:46:36;;;;;;;3.60;0.95;;;32.50;31.30;;;;;;10827812;33;20020;-73
2022/08/14 14:52:39;;;;;;;1.50;0.65;;;32.40;31.70;;;;;;10823366;33;20051;-73
2022/08/14 14:58:42;;;;;;;1.33;0.70;;;32.30;32.00;;;;;;10827179;33;20016;-73
2022/08/14 15:04:45;;;;;;;1.92;1.23;;;32.10;32.50;;;;;;10827462;33;20024;-71
2022/08/14 15:10:47;;;;;;;3.22;1.20;;;32.10;33.90;;;;;;10827144;33;20368;-72
2022/08/14 15:16:49;;;;;;;1.65;1.23;;;31.90;36.60;;;;;;10823702;32;20054;-72
2022/08/14 15:22:52;;;;;;;3.10;1.48;;;31.80;38.70;;;;;;10826932;33;20028;-72
2022/08/14 15:28:55;;;;;;;1.80;1.30;;;31.60;39.60;;;;;;10823066;32;20032;-71
2022/08/14 15:34:59;;;;;;;3.05;1.42;;;31.30;40.40;;;;;;10826486;33;20025;-72
2022/08/14 15:41:03;;;;;;;1.00;0.70;;;31.20;41.30;;;;;;10824304;33;20020;-72
2022/08/14 15:47:05;;;;;;;3.40;1.40;;;31.10;41.40;;;;;;10826142;33;20046;-72
2022/08/14 15:53:08;;;;;;;3.25;1.85;;;31.20;41.80;;;;;;10821675;32;20060;-72
2022/08/14 15:59:10;;;;;;;1.77;1.20;;;31.10;42.00;;;;;;10812618;33;20020;-72
2022/08/14 16:05:12;;;;;;;1.52;1.20;;;31.30;42.30;;;;;;10808394;33;20019;-72
2022/08/14 16:11:15;;;;;;;1.65;1.15;;;31.20;42.90;;;;;;10824996;33;20387;-72
2022/08/14 16:17:19;;;;;;;1.75;1.35;;;31.40;42.80;;;;;;10825210;32;20336;-72
2022/08/14 16:23:25;;;;;;;2.42;1.37;;;31.60;42.60;;;;;;10825160;33;20016;-72
2022/08/14 16:29:30;;;;;;;2.78;1.42;;;31.70;43.00;;;;;;10824727;32;20043;-72
2022/08/14 16:35:37;;;;;;;1.50;0.90;;;31.50;43.30;;;;;;10824332;32;20027;-72
2022/08/14 16:41:39;;;;;;;2.28;1.58;;;31.40;43.60;;;;;;10824666;33;20024;-72
2022/08/14 16:47:41;;;;;;;4.35;1.55;;;31.50;43.70;;;;;;10824351;32;20032;-72
2022/08/14 16:53:44;;;;;;;7.12;2.25;;;31.50;43.50;;;;;;10824311;33;20032;-72
2022/08/14 16:59:48;;;;;;;2.42;1.40;;;31.30;43.90;;;;;;10824333;33;20055;-72
2022/08/14 17:05:50;;;;;;;3.58;2.08;;;31.20;44.30;;;;;;10824125;32;20323;-72
2022/08/14 17:11:57;;;;;;;8.35;1.73;;;31.30;44.40;;;;;;10824065;33;20038;-72
2022/08/14 17:17:59;;;;;;;4.10;1.58;;;31.30;44.10;;;;;;10823803;32;20393;-72
2022/08/14 17:24:04;;;;;;;1.30;0.90;;;31.10;44.00;;;;;;10823586;32;20023;-72
2022/08/14 17:30:07;;;;;;;7.97;1.50;;;31.00;43.90;;;;;;10823430;32;20020;-72
2022/08/14 17:36:19;;;;;;;3.65;1.20;;;31.10;43.90;;;;;;10823241;32;20024;-72
2022/08/14 17:42:44;;;;;;;5.68;0.95;;;30.90;44.10;;;;;;10818539;33;20032;-72
2022/08/14 17:48:46;;;;;;;2.97;1.15;;;30.80;44.40;;;;;;10820540;32;20027;-72
2022/08/14 17:54:51;;;;;;;2.37;1.45;;;30.60;44.70;;;;;;10827223;32;20031;-72
2022/08/14 18:00:56;;;;;;;4.18;1.33;;;30.40;45.00;;;;;;10829087;33;20020;-72
2022/08/14 18:07:02;;;;;;;1.25;0.95;;;30.20;45.20;;;;;;10828813;33;20082;-72
2022/08/14 18:13:06;;;;;;;1.73;1.12;;;30.10;45.50;;;;;;10828521;33;20032;-72
2022/08/14 18:19:11;;;;;;;6.95;2.65;;;29.90;46.00;;;;;;10827191;32;20027;-72
2022/08/14 18:25:13;;;;;;;1.98;1.00;;;29.70;46.50;;;;;;10828353;33;20042;-72
2022/08/14 18:31:21;;;;;;;2.58;1.27;;;29.60;46.60;;;;;;10828103;33;20397;-72
2022/08/14 18:37:23;;;;;;;3.08;1.52;;;29.50;46.90;;;;;;10828242;33;20038;-72
2022/08/14 18:43:47;;;;;;;3.30;1.90;;;29.30;47.20;;;;;;10827840;33;20388;-72
2022/08/14 18:50:05;;;;;;;6.75;1.67;;;29.20;47.60;;;;;;10827572;33;20012;-72
2022/08/14 18:56:08;;;;;;;2.95;1.70;;;29.10;47.90;;;;;;10827025;33;20097;-72
2022/08/14 19:02:26;;;;;;;6.45;1.60;;;29.00;48.20;;;;;;10822705;33;20024;-72
2022/08/14 19:08:40;;;;;;;3.33;1.62;;;28.90;48.30;;;;;;10827009;33;20067;-72
2022/08/14 19:14:45;;;;;;;2.05;1.45;;;28.90;48.00;;;;;;10827093;33;20412;-72
2022/08/14 19:20:54;;;;;;;4.30;2.03;;;28.90;48.00;;;;;;10826509;33;20024;-72
2022/08/14 19:27:22;;;;;;;2.95;1.50;;;28.90;47.90;;;;;;10826509;32;20046;-72
2022/08/14 19:33:44;;;;;;;1.55;1.12;;;28.80;47.90;;;;;;10826522;33;20313;-72
2022/08/14 19:39:49;;;;;;;3.05;1.55;;;28.70;47.90;;;;;;10826179;33;20050;-72
2022/08/14 19:45:54;;;;;;;1.30;1.20;;;28.60;47.90;;;;;;10826218;33;20017;-72
2022/08/14 19:51:56;;;;;;;2.72;1.62;;;28.50;48.00;;;;;;10825853;33;20032;-72
2022/08/14 19:57:59;;;;;;;3.03;1.20;;;28.50;48.00;;;;;;10825705;33;20059;-72
2022/08/14 20:04:03;;;;;;;2.12;1.15;;;28.40;48.20;;;;;;10825678;33;20016;-72
2022/08/14 20:10:07;;;;;;;2.22;1.02;;;28.40;48.10;;;;;;10824267;32;20024;-72
2022/08/14 20:16:10;;;;;;;1.70;1.27;;;28.40;48.20;;;;;;10825067;33;20020;-72
2022/08/14 20:22:12;;;;;;;2.72;1.77;;;28.40;48.10;;;;;;10820227;33;20023;-72
2022/08/14 20:28:19;;;;;;;1.83;1.25;;;28.30;48.60;;;;;;10403538;27;14075550;-72
2022/08/14 20:34:33;;;;;;;1.30;0.97;;;28.30;48.90;;;;;;10822056;33;20042;-72
2022/08/14 20:40:38;;;;;;;1.60;1.23;;;28.20;49.00;;;;;;10821648;33;20402;-72
2022/08/14 20:46:40;;;;;;;2.03;1.30;;;28.10;49.20;;;;;;10820896;33;20054;-72
2022/08/14 20:52:43;;;;;;;1.98;1.30;;;28.10;49.30;;;;;;10822734;32;20062;-72
2022/08/14 20:58:46;;;;;;;2.30;0.95;;;28.10;49.50;;;;;;10860331;32;20054;-72
2022/08/14 21:04:53;;;;;;;3.20;1.67;;;28.10;49.50;;;;;;10861100;32;20034;-72
2022/08/14 21:10:56;;;;;;;1.42;1.15;;;28.00;49.80;;;;;;10860542;32;20065;-72
2022/08/14 21:16:59;;;;;;;1.73;1.30;;;28.00;49.90;;;;;;10860677;32;20019;-72
2022/08/14 21:23:05;;;;;;;1.55;1.08;;;27.90;50.20;;;;;;10862853;32;20434;-72
2022/08/14 21:29:10;;;;;;;2.12;1.42;;;27.90;50.20;;;;;;10867113;32;20012;-72
2022/08/14 21:35:12;;;;;;;3.10;1.37;;;27.90;50.30;;;;;;10866844;32;20418;-72
2022/08/14 21:41:22;;;;;;;2.50;1.55;;;27.90;50.30;;;;;;10853786;32;20011;-72
2022/08/14 21:47:25;;;;;;;1.75;1.12;;;27.90;50.30;;;;;;10864522;32;20039;-72
2022/08/14 21:53:31;;;;;;;1.98;1.25;;;27.80;50.40;;;;;;10866447;32;20015;-72
2022/08/14 21:59:34;;;;;;;3.78;1.55;;;27.80;50.50;;;;;;10865936;32;20027;-72
2022/08/14 22:05:38;;;;;;;5.15;1.87;;;27.60;50.50;;;;;;10865898;32;20019;-72
2022/08/14 22:11:42;;;;;;;2.35;1.67;;;27.60;50.70;;;;;;10862080;32;20328;-73
2022/08/14 22:17:45;;;;;;;2.67;1.42;;;27.50;51.00;;;;;;10865586;32;20024;-72
2022/08/14 22:23:47;;;;;;;2.05;1.10;;;27.50;51.20;;;;;;10865645;32;20293;-72
2022/08/14 22:29:50;;;;;;;1.42;1.17;;;27.40;51.20;;;;;;10865285;32;20015;-72
2022/08/14 22:35:53;;;;;;;6.93;1.80;;;27.30;51.20;;;;;;10851368;32;20051;-71
2022/08/14 22:41:56;;;;;;;1.85;1.30;;;27.30;51.20;;;;;;10865034;32;20016;-71
2022/08/14 22:47:58;;;;;;;1.12;0.95;;;27.30;51.60;;;;;;10865101;32;20058;-71
2022/08/14 22:54:00;;;;;;;1.20;1.00;;;27.20;51.50;;;;;;10863545;32;20024;-72
2022/08/14 23:00:08;;;;;;;2.87;1.33;;;27.10;51.40;;;;;;10851473;32;20015;-71
2022/08/14 23:06:13;;;;;;;2.85;1.65;;;27.20;51.50;;;;;;10851190;32;20031;-71
2022/08/14 23:12:16;;;;;;;2.90;1.87;;;27.20;51.60;;;;;;10850964;32;20027;-72
2022/08/14 23:18:22;;;;;;;1.35;0.95;;;27.10;51.50;;;;;;10859860;32;20016;-72
2022/08/14 23:24:25;;;;;;;3.97;1.85;;;27.10;51.70;;;;;;10864001;32;20335;-71
2022/08/14 23:30:27;;;;;;;3.05;1.33;;;27.10;52.00;;;;;;10863699;32;20012;-71
2022/08/14 23:36:30;;;;;;;2.22;1.52;;;27.10;52.20;;;;;;10863528;32;20367;-71
2022/08/14 23:42:32;;;;;;;2.33;1.12;;;27.00;52.10;;;;;;10863340;32;20012;-71
2022/08/14 23:48:34;;;;;;;1.90;1.65;;;26.90;52.10;;;;;;10858294;32;20019;-71
2022/08/14 23:54:37;;;;;;;2.08;1.30;;;26.80;52.40;;;;;;10863091;32;20020;-71
